Time;durP1;ratioP1;P1;durP2;ratioP2;P2;SDS_P1;SDS_P2;PMS_P1;PMS_P2;Temp;Humidity;BMP_temperature;BMP_pressure;BME280_temperature;BME280_humidity;BME280_pressure;Samples;Min_cycle;Max_cycle;Signal;HPM_P1;HPM_P2
2022/12/10 00:01:52;;;;;;;36.60;20.65;;;0.40;99.90;;;;;;4976473;28;20037;-91
2022/12/10 00:04:20;;;;;;;35.25;21.40;;;0.50;99.90;;;;;;4999788;28;20058;-88
2022/12/10 00:06:47;;;;;;;34.60;19.42;;;0.40;99.90;;;;;;4999758;28;20026;-90
2022/12/10 00:09:19;;;;;;;30.80;19.83;;;0.40;99.90;;;;;;4981807;28;20034;-90
2022/12/10 00:11:44;;;;;;;30.70;19.35;;;0.50;99.90;;;;;;4994798;28;20065;-90
2022/12/10 00:14:12;;;;;;;40.45;22.40;;;0.50;99.90;;;;;;4996402;28;20527;-90
2022/12/10 00:16:37;;;;;;;46.80;19.52;;;0.50;99.90;;;;;;4997738;28;20057;-90
2022/12/10 00:19:04;;;;;;;28.55;18.75;;;0.30;99.90;;;;;;4998274;28;20055;-90
2022/12/10 00:21:32;;;;;;;25.52;21.88;;;0.30;99.90;;;;;;4992540;28;20026;-89
2022/12/10 00:23:59;;;;;;;42.58;21.05;;;0.50;99.90;;;;;;5026753;28;20100;-90
2022/12/10 00:26:27;;;;;;;32.72;21.50;;;0.40;99.90;;;;;;4998581;28;20034;-88
2022/12/10 00:28:55;;;;;;;35.85;22.02;;;0.50;99.90;;;;;;4977137;28;20050;-89
2022/12/10 00:31:32;;;;;;;34.63;21.55;;;0.50;99.90;;;;;;4994651;28;20037;-90
2022/12/10 00:34:00;;;;;;;33.13;21.63;;;0.50;99.90;;;;;;4991905;28;20072;-90
2022/12/10 00:36:36;;;;;;;46.60;22.95;;;0.50;99.90;;;;;;4994714;28;20122;-89
2022/12/10 00:39:03;;;;;;;38.50;19.30;;;0.50;99.90;;;;;;4996592;28;20030;-90
2022/12/10 00:41:29;;;;;;;66.13;22.58;;;0.40;99.90;;;;;;4984679;28;20050;-90
2022/12/10 00:43:55;;;;;;;33.88;18.77;;;0.30;99.90;;;;;;4996585;28;20128;-90
2022/12/10 00:46:21;;;;;;;31.40;19.95;;;0.40;99.90;;;;;;4996106;28;20441;-90
2022/12/10 00:48:47;;;;;;;46.88;21.65;;;0.40;99.90;;;;;;4998605;28;20033;-89
2022/12/10 00:51:14;;;;;;;32.22;20.50;;;0.50;99.90;;;;;;4982492;28;20125;-89
2022/12/10 00:53:42;;;;;;;42.90;22.15;;;0.50;99.90;;;;;;4992927;28;20062;-89
2022/12/10 00:56:10;;;;;;;37.40;21.50;;;0.40;99.90;;;;;;5000123;28;20030;-90
2022/12/10 00:58:36;;;;;;;67.85;23.85;;;0.40;99.90;;;;;;4980304;28;20577;-90
2022/12/10 01:01:41;;;;;;;87.18;22.98;;;0.30;99.90;;;;;;5001729;28;20037;-90
2022/12/10 01:04:10;;;;;;;34.90;17.42;;;0.30;99.90;;;;;;4992898;28;20042;-90
2022/12/10 01:06:51;;;;;;;39.00;19.23;;;0.30;99.90;;;;;;5000270;28;20172;-89
2022/12/10 01:09:19;;;;;;;31.63;18.75;;;0.30;99.90;;;;;;4996784;28;20056;-88
2022/12/10 01:11:47;;;;;;;49.03;17.45;;;0.30;99.90;;;;;;4996958;28;20116;-88
2022/12/10 01:14:17;;;;;;;40.97;22.08;;;0.30;99.90;;;;;;4998658;28;20069;-87
2022/12/10 01:16:44;;;;;;;32.42;22.27;;;0.30;99.90;;;;;;4986436;28;20511;-90
2022/12/10 01:19:10;;;;;;;44.10;26.52;;;0.30;99.90;;;;;;4995830;28;20031;-90
2022/12/10 01:21:36;;;;;;;45.92;20.02;;;0.40;99.90;;;;;;4994936;28;20065;-90
2022/12/10 01:24:02;;;;;;;55.47;23.77;;;0.40;99.90;;;;;;4998914;28;20100;-89
2022/12/10 01:26:31;;;;;;;40.60;23.85;;;0.40;99.90;;;;;;4978173;28;20037;-91
2022/12/10 01:28:58;;;;;;;31.98;20.10;;;0.40;99.90;;;;;;4998113;28;20616;-89
2022/12/10 01:31:30;;;;;;;45.28;23.02;;;0.40;99.90;;;;;;4986814;28;20054;-90
2022/12/10 01:33:57;;;;;;;30.33;23.10;;;0.30;99.90;;;;;;4992092;28;20492;-89
2022/12/10 01:36:32;;;;;;;27.60;22.33;;;0.30;99.90;;;;;;5000466;28;20030;-88
2022/12/10 01:38:59;;;;;;;54.63;26.30;;;0.20;99.90;;;;;;4990013;28;20026;-90
2022/12/10 01:41:34;;;;;;;34.60;21.63;;;0.30;99.90;;;;;;4992376;28;20049;-89
2022/12/10 01:44:00;;;;;;;33.30;22.77;;;0.30;99.90;;;;;;4989676;28;20030;-90
2022/12/10 01:46:29;;;;;;;38.50;23.17;;;0.40;99.90;;;;;;4990320;28;20110;-90
2022/12/10 01:48:56;;;;;;;61.42;22.92;;;0.50;99.90;;;;;;4997833;28;20038;-90
2022/12/10 01:51:23;;;;;;;42.53;22.63;;;0.40;99.90;;;;;;4989308;28;20037;-89
2022/12/10 01:53:50;;;;;;;99.88;21.30;;;0.40;99.90;;;;;;4999056;28;20034;-89
2022/12/10 01:56:20;;;;;;;63.75;26.58;;;0.40;99.90;;;;;;4991729;28;20465;-91
2022/12/10 01:58:47;;;;;;;63.65;21.95;;;0.50;99.90;;;;;;4997239;28;20041;-89
2022/12/10 02:01:30;;;;;;;107.43;26.63;;;0.50;99.90;;;;;;5001158;28;20050;-89
2022/12/10 02:04:22;;;;;;;51.17;23.25;;;0.40;99.90;;;;;;5001563;28;20022;-89
2022/12/10 02:07:17;;;;;;;63.92;22.60;;;0.50;99.90;;;;;;5000080;28;20027;-89
2022/12/10 02:09:55;;;;;;;89.00;24.85;;;0.30;99.90;;;;;;5000540;28;20053;-90
2022/12/10 02:12:38;;;;;;;35.33;19.75;;;0.30;99.90;;;;;;4982337;28;20420;-89
2022/12/10 02:15:16;;;;;;;68.07;24.75;;;0.30;99.90;;;;;;4999521;28;20072;-90
2022/12/10 02:18:02;;;;;;;48.92;22.70;;;0.40;99.90;;;;;;4999430;28;20053;-88
2022/12/10 02:20:42;;;;;;;41.25;21.33;;;0.40;99.90;;;;;;5000484;28;20092;-91
2022/12/10 02:23:18;;;;;;;66.70;24.77;;;0.40;99.90;;;;;;5003172;28;20022;-88
2022/12/10 02:25:52;;;;;;;66.40;22.17;;;0.50;99.90;;;;;;4991302;28;20034;-89
2022/12/10 02:28:18;;;;;;;51.47;21.83;;;0.40;99.90;;;;;;5003096;28;20026;-90
2022/12/10 02:30:46;;;;;;;176.23;27.60;;;0.30;99.90;;;;;;4997671;28;20157;-89
2022/12/10 02:33:14;;;;;;;46.25;22.63;;;0.20;99.90;;;;;;4992840;28;20435;-89
2022/12/10 02:35:41;;;;;;;102.10;24.48;;;0.30;99.90;;;;;;4980294;28;20502;-89
2022/12/10 02:38:36;;;;;;;65.38;25.42;;;0.40;99.90;;;;;;4995892;28;20022;-90
2022/12/10 02:41:07;;;;;;;44.90;20.95;;;0.30;99.90;;;;;;4992990;28;20050;-90
2022/12/10 02:43:35;;;;;;;83.78;18.13;;;0.30;99.90;;;;;;4970208;28;20048;-89
2022/12/10 02:46:04;;;;;;;67.20;23.52;;;0.30;99.90;;;;;;5016089;28;20052;-89
2022/12/10 02:48:32;;;;;;;76.00;23.23;;;0.30;99.90;;;;;;4978420;28;20492;-90
2022/12/10 02:50:58;;;;;;;147.50;26.98;;;0.30;99.90;;;;;;5005463;28;20030;-91
2022/12/10 02:53:24;;;;;;;129.05;23.23;;;0.40;99.90;;;;;;4996888;28;20497;-89
2022/12/10 02:56:25;;;;;;;179.40;27.00;;;0.30;99.90;;;;;;4982855;28;20038;-89
2022/12/10 02:59:15;;;;;;;137.65;24.80;;;0.30;99.90;;;;;;4994849;28;20109;-90
2022/12/10 03:02:01;;;;;;;52.72;20.10;;;0.30;99.90;;;;;;4992355;28;20038;-89
2022/12/10 03:04:45;;;;;;;25.90;17.60;;;0.20;99.90;;;;;;4994914;28;20053;-89
2022/12/10 03:07:18;;;;;;;51.60;21.02;;;0.20;99.90;;;;;;4989847;28;20554;-90
2022/12/10 03:09:55;;;;;;;29.33;18.38;;;0.30;99.90;;;;;;5017479;28;20038;-91
2022/12/10 03:12:41;;;;;;;35.13;18.35;;;0.20;99.90;;;;;;4988943;28;20026;-90
2022/12/10 03:15:10;;;;;;;29.58;18.52;;;0.20;99.90;;;;;;4998059;28;20172;-89
2022/12/10 03:17:38;;;;;;;29.23;20.23;;;0.20;99.90;;;;;;5009689;28;20053;-89
2022/12/10 03:20:08;;;;;;;43.63;19.88;;;0.40;99.90;;;;;;4962031;28;20083;-89
2022/12/10 03:22:36;;;;;;;40.35;18.92;;;0.30;99.90;;;;;;4990394;28;20034;-90
2022/12/10 03:25:02;;;;;;;32.92;18.63;;;0.30;99.90;;;;;;5000021;28;20033;-89
2022/12/10 03:27:29;;;;;;;38.58;19.80;;;0.40;99.90;;;;;;4996350;28;20117;-91
2022/12/10 03:29:58;;;;;;;30.63;19.40;;;0.30;99.90;;;;;;4980541;28;20054;-89
2022/12/10 03:32:27;;;;;;;24.30;17.13;;;0.30;99.90;;;;;;5000164;28;20053;-89
2022/12/10 03:34:57;;;;;;;34.70;20.20;;;0.40;99.90;;;;;;4996518;28;20037;-90
2022/12/10 03:37:25;;;;;;;34.33;18.17;;;0.40;99.90;;;;;;5003521;28;20030;-90
2022/12/10 03:39:51;;;;;;;34.55;19.13;;;0.20;99.90;;;;;;5010431;28;20034;-90
2022/12/10 03:42:17;;;;;;;27.15;18.85;;;0.20;99.90;;;;;;4981069;28;20053;-89
2022/12/10 03:44:43;;;;;;;29.23;19.05;;;0.20;99.90;;;;;;4998048;28;20511;-90
2022/12/10 03:47:12;;;;;;;26.30;15.82;;;0.30;99.90;;;;;;4986591;28;20070;-89
2022/12/10 03:49:38;;;;;;;30.85;19.83;;;0.30;99.90;;;;;;5000086;28;20036;-89
2022/12/10 03:52:04;;;;;;;26.92;16.42;;;0.30;99.90;;;;;;4994348;28;20034;-89
2022/12/10 03:54:30;;;;;;;32.72;20.65;;;0.20;99.90;;;;;;4982464;28;20073;-89
2022/12/10 03:56:56;;;;;;;35.42;21.73;;;0.30;99.90;;;;;;4996634;28;20034;-90
2022/12/10 03:59:21;;;;;;;29.50;22.08;;;0.30;99.90;;;;;;4977249;28;20038;-89
2022/12/10 04:01:48;;;;;;;31.60;19.42;;;0.30;99.90;;;;;;4983389;28;20129;-92
2022/12/10 04:04:14;;;;;;;31.23;19.90;;;0.20;99.90;;;;;;4993799;28;20060;-90
2022/12/10 04:06:42;;;;;;;27.45;19.08;;;0.30;99.90;;;;;;5003723;28;20524;-90
2022/12/10 04:09:11;;;;;;;29.90;21.42;;;0.10;99.90;;;;;;4992786;28;20564;-90
2022/12/10 04:11:37;;;;;;;19.08;16.80;;;0.20;99.90;;;;;;4982289;28;20069;-91
2022/12/10 04:16:47;;;;;;;34.05;21.50;;;0.10;99.90;;;;;;4996730;28;20105;-89
2022/12/10 04:19:15;;;;;;;26.85;19.15;;;0.20;99.90;;;;;;4998923;28;20034;-89
2022/12/10 04:27:20;;;;;;;31.15;18.67;;;0.30;99.90;;;;;;4989908;28;20081;-89
2022/12/10 04:29:46;;;;;;;37.35;20.75;;;0.20;99.90;;;;;;4979431;28;20056;-89
2022/12/10 04:32:13;;;;;;;31.48;20.42;;;0.20;99.90;;;;;;4984374;28;20042;-91
2022/12/10 04:34:39;;;;;;;23.73;19.10;;;0.20;99.90;;;;;;4998598;28;20149;-90
2022/12/10 04:37:05;;;;;;;33.63;18.48;;;0.20;99.90;;;;;;4992769;28;20121;-90
2022/12/10 04:39:31;;;;;;;20.80;18.48;;;0.20;99.90;;;;;;4989314;28;20034;-91
2022/12/10 04:41:57;;;;;;;27.02;20.73;;;0.20;99.90;;;;;;4979797;28;20081;-89
2022/12/10 04:44:22;;;;;;;34.92;18.15;;;0.30;99.90;;;;;;4995439;28;20034;-88
2022/12/10 04:46:49;;;;;;;24.02;17.38;;;0.20;99.90;;;;;;4997606;28;20126;-89
2022/12/10 04:49:16;;;;;;;35.25;21.15;;;0.10;99.90;;;;;;4996681;28;20407;-89
2022/12/10 04:51:46;;;;;;;22.70;18.70;;;0.20;99.90;;;;;;4999574;28;20042;-89
2022/12/10 04:54:13;;;;;;;28.85;19.85;;;0.20;99.90;;;;;;4997568;28;20558;-91
2022/12/10 04:56:38;;;;;;;28.50;19.63;;;0.20;99.90;;;;;;4993995;28;20026;-90
2022/12/10 04:59:04;;;;;;;29.25;17.20;;;0.10;99.90;;;;;;4994030;28;20042;-90
2022/12/10 05:01:30;;;;;;;25.73;18.65;;;-0.10;99.90;;;;;;4990149;28;20065;-89
2022/12/10 05:03:59;;;;;;;20.38;15.82;;;0.00;99.90;;;;;;4997292;28;20046;-87
2022/12/10 05:06:25;;;;;;;22.67;20.00;;;-0.20;99.90;;;;;;4994732;28;20104;-88
2022/12/10 05:08:50;;;;;;;24.65;19.83;;;0.10;99.90;;;;;;4997231;28;20677;-89
2022/12/10 05:11:18;;;;;;;28.50;19.80;;;0.10;99.90;;;;;;4982391;28;20089;-89
2022/12/10 05:13:45;;;;;;;23.63;18.90;;;0.00;99.90;;;;;;4990912;28;20045;-88
2022/12/10 05:16:15;;;;;;;29.55;21.15;;;0.10;99.90;;;;;;4966935;28;20531;-89
2022/12/10 05:18:41;;;;;;;;;;;0.10;99.90;;;;;;4990266;28;20088;-91
2022/12/10 05:21:11;;;;;;;17.50;15.25;;;0.20;99.90;;;;;;4998031;28;19913;-89
2022/12/10 05:23:38;;;;;;;17.77;13.95;;;0.10;99.90;;;;;;4992519;28;20070;-90
2022/12/10 05:26:12;;;;;;;29.90;18.30;;;0.10;99.90;;;;;;4997887;28;20064;-89
2022/12/10 05:28:40;;;;;;;26.15;18.33;;;0.20;99.90;;;;;;4992548;28;20037;-89
2022/12/10 05:31:16;;;;;;;25.02;16.85;;;0.30;99.90;;;;;;4989439;28;20046;-89
2022/12/10 05:33:42;;;;;;;26.15;19.77;;;0.10;99.90;;;;;;4994502;28;20503;-87
2022/12/10 05:36:11;;;;;;;24.52;15.07;;;0.00;99.90;;;;;;4995143;28;20034;-90
2022/12/10 05:38:37;;;;;;;20.50;17.40;;;0.00;99.90;;;;;;4996907;28;20084;-89
2022/12/10 05:41:10;;;;;;;27.33;21.25;;;-0.10;99.90;;;;;;5000946;28;20031;-89
2022/12/10 05:43:36;;;;;;;28.20;19.75;;;0.00;99.90;;;;;;4996325;28;20022;-89
2022/12/10 05:46:04;;;;;;;25.60;19.85;;;0.00;99.90;;;;;;5001588;28;20038;-89
2022/12/10 05:48:30;;;;;;;24.25;20.60;;;0.00;99.90;;;;;;4993175;28;20030;-87
2022/12/10 05:50:56;;;;;;;28.40;21.23;;;0.10;99.90;;;;;;5017360;28;20148;-88
2022/12/10 05:53:23;;;;;;;33.13;23.40;;;0.00;99.90;;;;;;5001650;28;20750;-89
2022/12/10 05:55:49;;;;;;;31.25;28.35;;;-0.20;99.90;;;;;;4998798;28;20480;-89
2022/12/10 05:58:18;;;;;;;28.48;21.23;;;-0.30;99.90;;;;;;4997326;28;20093;-88
2022/12/10 06:00:44;;;;;;;35.15;21.15;;;-0.10;99.90;;;;;;4989744;28;20030;-87
2022/12/10 06:03:09;;;;;;;28.90;18.95;;;-0.20;99.90;;;;;;4999923;28;20033;-89
2022/12/10 06:05:37;;;;;;;42.67;38.65;;;-0.10;99.90;;;;;;4992041;28;20041;-86
2022/12/10 06:08:03;;;;;;;21.92;15.20;;;-0.10;99.90;;;;;;4987841;28;20037;-87
2022/12/10 06:10:29;;;;;;;29.42;19.98;;;-0.20;99.90;;;;;;4988126;28;20039;-86
2022/12/10 06:12:55;;;;;;;23.13;18.77;;;-0.10;99.90;;;;;;4998559;28;20037;-85
2022/12/10 06:15:20;;;;;;;29.02;19.58;;;-0.10;99.90;;;;;;4995276;28;20053;-89
2022/12/10 06:17:46;;;;;;;24.63;15.85;;;-0.30;99.90;;;;;;4986624;28;20042;-87
2022/12/10 06:20:11;;;;;;;32.03;20.42;;;-0.30;99.90;;;;;;4982891;28;20955;-88
2022/12/10 06:22:37;;;;;;;29.75;19.73;;;-0.40;99.90;;;;;;4992106;28;20042;-84
2022/12/10 06:25:05;;;;;;;29.02;19.92;;;-0.30;99.90;;;;;;4985654;28;20034;-86
2022/12/10 06:27:32;;;;;;;25.98;18.40;;;-0.30;99.90;;;;;;4983816;28;20026;-88
2022/12/10 06:29:57;;;;;;;23.23;18.75;;;-0.20;99.90;;;;;;4988991;28;20105;-85
2022/12/10 06:32:23;;;;;;;31.35;20.65;;;-0.20;99.90;;;;;;4990810;28;20043;-87
2022/12/10 06:34:49;;;;;;;35.78;19.40;;;-0.20;99.90;;;;;;4981898;28;20066;-87
2022/12/10 06:37:14;;;;;;;31.17;19.95;;;-0.20;99.90;;;;;;4991732;28;20035;-88
2022/12/10 06:39:41;;;;;;;29.70;19.05;;;-0.10;99.90;;;;;;4966695;28;20038;-88
2022/12/10 06:42:06;;;;;;;29.40;18.05;;;-0.20;99.90;;;;;;4983947;28;20077;-87
2022/12/10 06:44:32;;;;;;;23.80;16.67;;;-0.30;99.90;;;;;;4994004;28;20464;-88
2022/12/10 06:46:59;;;;;;;26.90;16.13;;;-0.40;99.90;;;;;;4982013;28;20042;-88
2022/12/10 06:49:25;;;;;;;43.55;17.63;;;-0.30;99.90;;;;;;4985971;28;20398;-87
2022/12/10 06:51:51;;;;;;;29.45;16.77;;;-0.30;99.90;;;;;;4974014;28;20034;-87
2022/12/10 06:54:17;;;;;;;33.15;19.25;;;-0.20;99.90;;;;;;5001585;28;20034;-87
2022/12/10 06:56:43;;;;;;;26.58;17.80;;;-0.20;99.90;;;;;;5000464;28;20149;-89
2022/12/10 06:59:09;;;;;;;28.08;18.27;;;-0.30;99.90;;;;;;4969900;28;20184;-88
2022/12/10 07:01:38;;;;;;;23.35;17.40;;;-0.30;99.90;;;;;;4992738;28;20122;-87
2022/12/10 07:04:04;;;;;;;53.35;48.50;;;-0.30;99.90;;;;;;4986979;28;20031;-87
2022/12/10 07:06:32;;;;;;;32.88;20.65;;;-0.40;99.90;;;;;;5032827;28;20398;-86
2022/12/10 07:08:58;;;;;;;23.92;17.13;;;-0.40;99.90;;;;;;4994241;28;20404;-87
2022/12/10 07:11:26;;;;;;;18.08;15.40;;;-0.50;99.90;;;;;;5003859;28;20022;-87
2022/12/10 07:13:52;;;;;;;24.40;16.30;;;-0.50;99.90;;;;;;5002013;28;20027;-86
2022/12/10 07:16:20;;;;;;;23.45;18.30;;;-0.40;99.90;;;;;;4998831;28;20026;-87
2022/12/10 07:18:47;;;;;;;17.33;13.93;;;-0.30;99.90;;;;;;5001860;28;20109;-87
2022/12/10 07:21:23;;;;;;;31.05;19.63;;;-0.30;99.90;;;;;;5001458;28;20029;-87
2022/12/10 07:23:49;;;;;;;26.13;23.30;;;-0.30;99.90;;;;;;5001860;28;20026;-85
2022/12/10 07:26:16;;;;;;;29.02;17.15;;;-0.30;99.90;;;;;;4998447;28;20034;-83
2022/12/10 07:28:42;;;;;;;27.55;18.25;;;-0.20;99.90;;;;;;4999135;28;20490;-88
2022/12/10 07:31:09;;;;;;;28.02;19.60;;;-0.30;99.90;;;;;;5000504;28;20149;-88
2022/12/10 07:33:35;;;;;;;19.95;15.25;;;-0.40;99.90;;;;;;4993906;28;20038;-86
2022/12/10 07:36:06;;;;;;;22.55;15.38;;;-0.30;99.90;;;;;;4987661;28;20504;-83
2022/12/10 07:38:32;;;;;;;21.98;18.45;;;-0.40;99.90;;;;;;5000914;28;20041;-83
2022/12/10 07:40:57;;;;;;;24.40;16.30;;;-0.40;99.90;;;;;;4999610;28;20026;-85
2022/12/10 07:43:23;;;;;;;25.42;19.08;;;-0.40;99.90;;;;;;5002433;28;20026;-85
2022/12/10 07:45:49;;;;;;;22.02;16.08;;;-0.30;99.90;;;;;;4995319;28;20090;-86
2022/12/10 07:48:15;;;;;;;26.35;18.67;;;-0.30;99.90;;;;;;4996434;28;20034;-86
2022/12/10 07:50:41;;;;;;;18.55;14.93;;;-0.20;99.90;;;;;;4987378;28;20030;-84
2022/12/10 07:53:06;;;;;;;24.98;19.42;;;-0.30;99.90;;;;;;4988349;28;20030;-85
2022/12/10 07:55:32;;;;;;;15.48;13.95;;;-0.20;99.90;;;;;;4997259;28;20504;-82
2022/12/10 07:57:58;;;;;;;16.50;13.18;;;-0.20;99.90;;;;;;5007512;28;20046;-82
2022/12/10 08:00:23;;;;;;;18.30;14.55;;;-0.30;99.90;;;;;;4990035;28;20484;-85
2022/12/10 08:02:49;;;;;;;24.02;17.00;;;-0.30;99.90;;;;;;4998597;28;20395;-85
2022/12/10 08:05:15;;;;;;;19.92;16.38;;;-0.20;99.90;;;;;;4998537;28;20034;-86
2022/12/10 08:07:40;;;;;;;22.95;16.65;;;-0.20;99.90;;;;;;4997273;28;20026;-81
2022/12/10 08:10:08;;;;;;;16.10;12.40;;;-0.20;99.90;;;;;;5007705;28;20084;-86
2022/12/10 08:12:33;;;;;;;23.20;12.52;;;-0.20;99.90;;;;;;4998797;28;20035;-86
2022/12/10 08:15:02;;;;;;;14.60;13.23;;;-0.10;99.90;;;;;;5008392;28;20515;-86
2022/12/10 08:17:30;;;;;;;25.00;16.02;;;-0.10;99.90;;;;;;5017246;28;20038;-88
2022/12/10 08:19:57;;;;;;;30.70;17.90;;;-0.10;99.90;;;;;;4980481;28;20031;-85
2022/12/10 08:22:23;;;;;;;17.98;14.00;;;0.00;99.90;;;;;;4986196;28;20027;-86
2022/12/10 08:24:48;;;;;;;20.30;14.60;;;-0.10;99.90;;;;;;5002743;28;20033;-84
2022/12/10 08:27:14;;;;;;;20.08;15.73;;;-0.10;99.90;;;;;;5007511;28;20548;-86
2022/12/10 08:29:40;;;;;;;18.92;15.25;;;0.00;99.90;;;;;;5005667;28;20065;-86
2022/12/10 08:32:06;;;;;;;19.70;13.93;;;-0.10;99.90;;;;;;5003685;28;20089;-84
2022/12/10 08:34:31;;;;;;;31.90;16.90;;;-0.10;99.90;;;;;;5000684;28;20042;-85
2022/12/10 08:36:57;;;;;;;15.80;12.77;;;-0.10;99.90;;;;;;4983899;28;20029;-87
2022/12/10 08:39:23;;;;;;;19.35;15.82;;;0.00;99.90;;;;;;4982984;28;20039;-87
2022/12/10 08:41:49;;;;;;;22.75;14.18;;;0.00;99.90;;;;;;4999107;28;20023;-84
2022/12/10 08:44:15;;;;;;;21.00;16.27;;;-0.10;99.90;;;;;;4983478;28;20034;-84
2022/12/10 08:46:41;;;;;;;23.25;15.50;;;0.00;99.90;;;;;;5003557;28;20032;-86
2022/12/10 08:49:07;;;;;;;22.65;15.77;;;0.10;99.90;;;;;;4999472;28;20037;-88
2022/12/10 08:51:41;;;;;;;19.77;15.60;;;0.00;99.90;;;;;;4995379;28;20034;-87
2022/12/10 08:54:07;;;;;;;21.25;16.60;;;0.00;99.90;;;;;;4987974;28;20100;-87
2022/12/10 08:56:32;;;;;;;22.30;15.63;;;0.00;99.90;;;;;;4998251;28;20496;-86
2022/12/10 08:58:58;;;;;;;22.27;16.20;;;0.00;99.90;;;;;;5003725;28;20114;-90
2022/12/10 09:01:24;;;;;;;23.58;16.85;;;0.10;99.90;;;;;;4987496;28;20030;-90
2022/12/10 09:03:50;;;;;;;21.42;15.85;;;0.10;99.90;;;;;;4995226;28;20038;-89
2022/12/10 09:06:20;;;;;;;20.00;15.43;;;0.10;99.90;;;;;;4986205;28;20032;-87
2022/12/10 09:08:46;;;;;;;15.07;13.52;;;0.00;99.90;;;;;;4997039;28;20078;-89
2022/12/10 09:11:18;;;;;;;22.15;17.02;;;0.10;99.90;;;;;;4979067;28;20569;-89
2022/12/10 09:13:43;;;;;;;20.35;17.83;;;0.10;99.90;;;;;;4988440;28;20034;-88
2022/12/10 09:16:09;;;;;;;22.77;15.68;;;0.10;99.90;;;;;;5003444;28;21215;-89
2022/12/10 09:18:35;;;;;;;19.45;14.35;;;0.10;99.90;;;;;;4983143;28;20026;-88
2022/12/10 09:21:06;;;;;;;18.60;13.68;;;0.10;99.90;;;;;;5014973;28;20026;-89
2022/12/10 09:23:31;;;;;;;21.95;13.57;;;0.10;99.90;;;;;;4994802;28;20027;-89
2022/12/10 09:25:58;;;;;;;19.88;14.02;;;0.20;99.90;;;;;;5004093;28;20110;-88
2022/12/10 09:28:25;;;;;;;23.95;14.93;;;0.30;99.90;;;;;;4987767;28;20630;-90
2022/12/10 09:30:59;;;;;;;26.83;14.80;;;0.30;99.90;;;;;;4997300;28;20112;-86
2022/12/10 09:33:26;;;;;;;24.08;13.23;;;0.30;99.90;;;;;;5004688;28;20100;-86
2022/12/10 09:35:52;;;;;;;16.23;14.23;;;0.40;99.90;;;;;;4990579;28;20074;-86
2022/12/10 09:38:18;;;;;;;19.10;15.23;;;0.30;99.90;;;;;;5004903;28;20379;-88
2022/12/10 09:41:01;;;;;;;11.85;10.70;;;0.40;99.90;;;;;;5004039;28;20042;-83
2022/12/10 09:43:54;;;;;;;18.55;14.25;;;0.60;99.90;;;;;;5005560;28;20033;-84
2022/12/10 09:46:41;;;;;;;15.73;12.07;;;0.50;99.90;;;;;;5003066;28;20018;-85
2022/12/10 09:49:31;;;;;;;21.48;13.82;;;0.40;99.90;;;;;;4999028;28;20026;-82
2022/12/10 09:52:05;;;;;;;15.90;12.57;;;0.50;99.90;;;;;;5000117;28;20108;-79
2022/12/10 09:54:41;;;;;;;20.20;15.48;;;0.70;99.90;;;;;;5005874;28;20022;-83
2022/12/10 09:57:16;;;;;;;22.58;15.73;;;0.60;99.90;;;;;;4997142;28;20025;-80
2022/12/10 09:59:47;;;;;;;19.83;15.23;;;0.70;99.90;;;;;;5002589;28;20431;-83
2022/12/10 10:02:27;;;;;;;20.25;15.05;;;0.60;99.90;;;;;;5006296;28;20025;-82
2022/12/10 10:05:05;;;;;;;11.73;10.45;;;0.60;99.90;;;;;;4994435;28;20113;-85
2022/12/10 10:07:32;;;;;;;24.92;16.60;;;0.60;99.90;;;;;;5001037;28;20068;-84
2022/12/10 10:10:02;;;;;;;18.70;14.63;;;0.70;99.90;;;;;;4992186;28;20035;-83
2022/12/10 10:12:30;;;;;;;23.10;16.98;;;0.70;99.90;;;;;;4991601;28;20034;-81
2022/12/10 10:14:56;;;;;;;22.70;17.58;;;0.80;99.90;;;;;;4994048;28;20061;-79
2022/12/10 10:17:34;;;;;;;22.33;16.17;;;0.60;99.90;;;;;;5029231;28;20457;-86
2022/12/10 10:20:01;;;;;;;17.88;14.50;;;0.60;99.90;;;;;;4990426;28;20022;-81
2022/12/10 10:22:27;;;;;;;21.27;14.07;;;0.70;99.90;;;;;;4991911;28;20027;-84
2022/12/10 10:24:53;;;;;;;17.27;15.30;;;0.80;99.90;;;;;;4989977;28;20508;-83
2022/12/10 10:27:26;;;;;;;24.58;14.57;;;0.60;99.90;;;;;;4995430;28;20026;-86
2022/12/10 10:29:53;;;;;;;23.92;15.10;;;0.80;99.90;;;;;;4991947;28;20073;-86
2022/12/10 10:32:24;;;;;;;24.25;14.93;;;0.60;99.90;;;;;;4977558;28;20049;-80
2022/12/10 10:34:58;;;;;;;14.98;11.77;;;0.70;99.90;;;;;;4999793;28;20038;-87
2022/12/10 10:37:48;;;;;;;22.30;14.45;;;0.70;99.90;;;;;;4989057;28;20053;-86
2022/12/10 10:40:31;;;;;;;22.48;15.70;;;0.60;99.90;;;;;;4991110;28;20026;-85
2022/12/10 10:42:59;;;;;;;14.18;12.52;;;0.60;99.90;;;;;;4996614;28;20045;-81
2022/12/10 10:45:36;;;;;;;15.35;13.40;;;0.70;99.70;;;;;;5000082;28;20116;-82
2022/12/10 10:48:05;;;;;;;17.75;13.95;;;0.80;99.50;;;;;;4995821;28;20026;-82
2022/12/10 10:50:35;;;;;;;23.92;15.07;;;0.70;99.20;;;;;;5028914;28;20110;-84
2022/12/10 10:53:01;;;;;;;13.15;12.02;;;0.80;99.90;;;;;;4999221;28;20306;-82
2022/12/10 10:55:36;;;;;;;11.80;10.52;;;0.90;99.90;;;;;;4995460;28;20188;-80
2022/12/10 10:58:03;;;;;;;16.02;13.82;;;1.00;99.40;;;;;;4995406;28;20046;-84
2022/12/10 11:00:30;;;;;;;16.25;13.55;;;1.00;99.50;;;;;;5021738;28;20037;-86
2022/12/10 11:02:57;;;;;;;18.15;14.38;;;1.00;98.80;;;;;;5002825;28;20448;-81
2022/12/10 11:05:25;;;;;;;15.75;13.05;;;0.80;98.80;;;;;;4995088;28;20042;-83
2022/12/10 11:08:00;;;;;;;19.15;14.13;;;0.90;98.60;;;;;;4994777;28;20079;-83
2022/12/10 11:10:26;;;;;;;16.27;13.18;;;0.70;99.40;;;;;;4981897;28;20031;-85
2022/12/10 11:13:06;;;;;;;17.23;14.23;;;0.70;99.90;;;;;;4991772;28;20161;-83
2022/12/10 11:15:42;;;;;;;19.83;15.05;;;0.90;99.90;;;;;;4993073;28;20057;-82
2022/12/10 11:18:34;;;;;;;16.92;14.02;;;1.00;99.90;;;;;;4993325;28;20030;-82
2022/12/10 11:21:25;;;;;;;16.33;13.88;;;1.10;99.90;;;;;;4994528;28;20055;-91
2022/12/10 11:23:56;;;;;;;20.00;14.95;;;1.00;99.90;;;;;;5008244;28;20086;-90
2022/12/10 11:26:46;;;;;;;16.98;14.18;;;1.00;99.90;;;;;;4996314;28;20027;-91
2022/12/10 11:29:19;;;;;;;16.70;13.18;;;1.00;99.90;;;;;;4991082;28;20046;-91
2022/12/10 11:31:51;;;;;;;23.88;16.45;;;0.90;99.90;;;;;;4993746;28;20035;-90
2022/12/10 11:34:44;;;;;;;23.10;14.52;;;0.90;99.90;;;;;;4995767;28;20065;-90
2022/12/10 11:37:45;;;;;;;15.43;13.07;;;1.00;99.90;;;;;;4984347;28;20050;-90
2022/12/10 11:40:14;;;;;;;16.17;12.82;;;0.90;99.90;;;;;;5030041;28;20029;-90
2022/12/10 11:42:52;;;;;;;18.00;14.48;;;0.80;99.90;;;;;;4987171;28;20103;-83
2022/12/10 11:45:52;;;;;;;13.82;12.43;;;0.80;99.90;;;;;;4993150;28;20038;-84
2022/12/10 11:48:36;;;;;;;19.55;12.07;;;0.60;99.90;;;;;;4997032;28;20071;-87
2022/12/10 11:51:11;;;;;;;14.35;11.50;;;0.60;99.90;;;;;;4994592;28;20493;-85
2022/12/10 11:53:55;;;;;;;12.70;10.10;;;0.40;99.90;;;;;;4992564;28;20033;-78
2022/12/10 11:56:51;;;;;;;13.38;9.63;;;0.30;99.90;;;;;;4986399;28;20125;-84
2022/12/10 11:59:36;;;;;;;12.70;10.10;;;0.20;99.90;;;;;;4977447;28;20480;-79
2022/12/10 12:02:20;;;;;;;23.80;20.30;;;0.20;99.90;;;;;;5000274;28;20031;-86
2022/12/10 12:04:52;;;;;;;11.32;8.18;;;0.00;99.90;;;;;;4992843;28;20022;-79
2022/12/10 12:07:44;;;;;;;11.02;8.88;;;0.00;99.90;;;;;;5003218;28;20029;-83
2022/12/10 12:10:44;;;;;;;10.48;9.38;;;0.10;99.90;;;;;;4988407;28;20034;-81
2022/12/10 12:13:25;;;;;;;11.57;10.32;;;0.20;99.90;;;;;;5001624;28;20037;-79
2022/12/10 12:16:00;;;;;;;11.95;9.88;;;0.10;99.90;;;;;;4992098;28;20019;-79
2022/12/10 12:18:52;;;;;;;12.25;10.20;;;0.30;99.90;;;;;;4992580;28;20038;-78
2022/12/10 12:21:18;;;;;;;15.10;10.43;;;0.40;99.90;;;;;;4985273;28;20117;-81
2022/12/10 12:24:01;;;;;;;14.52;10.45;;;0.40;99.90;;;;;;4997915;28;20520;-83
2022/12/10 12:26:32;;;;;;;15.60;11.73;;;0.50;99.90;;;;;;4994568;28;20029;-78
2022/12/10 12:29:03;;;;;;;12.43;9.65;;;0.60;99.90;;;;;;4990729;28;20050;-81
2022/12/10 12:31:36;;;;;;;13.98;11.57;;;0.50;99.90;;;;;;4998960;28;20057;-80
2022/12/10 12:34:07;;;;;;;15.25;11.10;;;0.40;99.90;;;;;;4994743;28;20027;-82
2022/12/10 12:36:34;;;;;;;13.25;11.38;;;0.50;99.90;;;;;;4992616;28;20034;-82
2022/12/10 12:39:32;;;;;;;14.80;12.35;;;0.30;99.90;;;;;;4989182;28;20596;-86
2022/12/10 12:42:11;;;;;;;10.02;8.98;;;0.40;99.90;;;;;;4990126;28;20118;-80
2022/12/10 12:45:08;;;;;;;14.40;12.68;;;0.50;99.90;;;;;;4988973;28;20034;-79
2022/12/10 12:48:03;;;;;;;7.78;7.20;;;0.60;99.90;;;;;;4990946;28;20077;-85
2022/12/10 12:50:46;;;;;;;8.63;7.82;;;0.30;99.90;;;;;;4984405;28;20046;-82
2022/12/10 12:53:19;;;;;;;9.43;8.38;;;0.30;99.90;;;;;;4996921;28;20033;-81
2022/12/10 12:55:56;;;;;;;13.48;8.68;;;0.50;99.90;;;;;;5010279;28;20430;-81
2022/12/10 12:58:37;;;;;;;7.43;6.82;;;0.60;99.90;;;;;;4994008;28;20110;-82
2022/12/10 13:01:25;;;;;;;6.28;5.78;;;0.50;99.50;;;;;;4995792;28;20077;-79
2022/12/10 13:03:51;;;;;;;14.40;13.18;;;0.30;99.50;;;;;;4995550;28;20551;-78